Time;durP1;ratioP1;P1;durP2;ratioP2;P2;SDS_P1;SDS_P2;PMS_P1;PMS_P2;Temp;Humidity;BMP_temperature;BMP_pressure;BME280_temperature;BME280_humidity;BME280_pressure;Samples;Min_cycle;Max_cycle;Signal;HPM_P1;HPM_P2
2022/09/02 00:01:26;;;;;;;0.40;0.10;;;18.50;47.80;;;;;;5054157;28;20067;-81
2022/09/02 00:04:08;;;;;;;0.28;0.08;;;18.50;47.80;;;;;;5065984;28;20040;-80
2022/09/02 00:06:36;;;;;;;0.32;0.10;;;18.50;47.90;;;;;;5056519;28;20453;-80
2022/09/02 00:09:06;;;;;;;0.35;0.05;;;18.50;47.90;;;;;;5051052;28;20036;-80
2022/09/02 00:11:35;;;;;;;0.98;0.10;;;18.40;47.90;;;;;;5059808;28;20043;-80
2022/09/02 00:14:05;;;;;;;0.50;0.17;;;18.40;48.00;;;;;;5059006;28;20040;-80
2022/09/02 00:16:32;;;;;;;0.63;0.00;;;18.40;48.10;;;;;;5050800;28;20908;-80
2022/09/02 00:19:01;;;;;;;0.88;0.10;;;18.30;48.10;;;;;;5056660;28;20040;-80
2022/09/02 00:21:31;;;;;;;0.68;0.10;;;18.30;48.20;;;;;;5040184;28;20040;-80
2022/09/02 00:23:59;;;;;;;0.80;0.10;;;18.30;48.20;;;;;;5059635;28;20037;-80
2022/09/02 00:26:26;;;;;;;0.52;0.00;;;18.30;48.30;;;;;;5045661;28;20050;-81
2022/09/02 00:28:53;;;;;;;0.65;0.10;;;18.20;48.30;;;;;;5058722;28;20126;-80
2022/09/02 00:31:24;;;;;;;0.03;0.00;;;18.20;48.40;;;;;;5055606;28;20044;-80
2022/09/02 00:33:52;;;;;;;0.10;0.00;;;18.20;48.40;;;;;;5043550;28;20041;-80
2022/09/02 00:36:19;;;;;;;0.20;0.03;;;18.20;48.50;;;;;;5055216;28;20131;-81
2022/09/02 00:38:47;;;;;;;0.43;0.13;;;18.10;48.50;;;;;;5066503;28;20040;-80
2022/09/02 00:41:14;;;;;;;0.85;0.10;;;18.10;48.50;;;;;;5043994;28;20107;-80
2022/09/02 00:43:55;;;;;;;0.40;0.10;;;18.10;48.70;;;;;;5055585;28;20049;-81
2022/09/02 00:46:24;;;;;;;0.20;0.00;;;18.00;48.60;;;;;;5059101;28;20036;-80
2022/09/02 00:49:02;;;;;;;0.38;0.10;;;18.00;48.70;;;;;;5065481;28;20378;-81
2022/09/02 00:51:37;;;;;;;0.40;0.10;;;18.00;48.80;;;;;;5059266;28;20116;-80
2022/09/02 00:54:05;;;;;;;0.50;0.10;;;18.00;48.80;;;;;;5063481;28;20078;-80
2022/09/02 00:56:34;;;;;;;2.00;0.08;;;18.00;48.90;;;;;;5038828;28;20051;-80
2022/09/02 00:59:02;;;;;;;0.55;0.10;;;18.00;48.90;;;;;;5066355;28;20040;-81
2022/09/02 01:01:29;;;;;;;0.40;0.10;;;17.90;48.90;;;;;;5054205;28;20101;-80
2022/09/02 01:03:56;;;;;;;0.20;0.10;;;17.90;49.00;;;;;;5031418;28;20040;-81
2022/09/02 01:06:26;;;;;;;0.45;0.03;;;17.90;49.00;;;;;;5028512;28;20074;-81
2022/09/02 01:08:59;;;;;;;1.33;0.00;;;17.90;49.10;;;;;;5029229;28;20082;-81
2022/09/02 01:11:35;;;;;;;0.63;0.10;;;17.80;49.10;;;;;;5068276;28;20070;-81
2022/09/02 01:14:02;;;;;;;0.20;0.10;;;17.80;49.20;;;;;;5084853;28;20036;-81
2022/09/02 01:16:38;;;;;;;0.30;0.00;;;17.80;49.30;;;;;;5036081;28;20124;-81
2022/09/02 01:19:19;;;;;;;0.10;0.10;;;17.70;49.30;;;;;;5041067;28;20094;-81
2022/09/02 01:21:48;;;;;;;0.57;0.10;;;17.70;49.30;;;;;;5056557;28;20068;-81
2022/09/02 01:24:17;;;;;;;0.95;0.10;;;17.70;49.40;;;;;;5056794;28;20036;-81
2022/09/02 01:26:45;;;;;;;2.45;0.10;;;17.70;49.40;;;;;;5038324;28;20041;-80
2022/09/02 01:29:12;;;;;;;0.52;0.10;;;17.70;49.50;;;;;;5068541;28;20110;-80
2022/09/02 01:31:39;;;;;;;0.00;0.00;;;17.70;49.50;;;;;;5055001;28;20041;-80
2022/09/02 01:34:06;;;;;;;0.65;0.08;;;17.70;49.50;;;;;;5038320;28;20528;-80
2022/09/02 01:36:37;;;;;;;0.32;0.10;;;17.70;49.50;;;;;;5055952;28;20043;-81
2022/09/02 01:39:05;;;;;;;0.55;0.10;;;17.70;50.10;;;;;;5058659;28;20070;-80
2022/09/02 01:41:35;;;;;;;0.32;0.10;;;17.60;49.50;;;;;;5080989;28;20055;-81
2022/09/02 01:44:03;;;;;;;0.13;0.00;;;17.60;49.50;;;;;;5036145;28;20040;-80
2022/09/02 01:46:32;;;;;;;0.40;0.00;;;17.70;49.60;;;;;;5045145;28;20098;-81
2022/09/02 01:48:59;;;;;;;0.30;0.10;;;17.70;49.60;;;;;;5074562;28;20500;-81
2022/09/02 01:51:27;;;;;;;1.08;0.10;;;17.60;49.60;;;;;;5021585;28;20486;-78
2022/09/02 01:53:54;;;;;;;0.25;0.10;;;17.70;49.60;;;;;;5066450;28;20046;-78
2022/09/02 01:56:21;;;;;;;0.50;0.10;;;17.70;49.60;;;;;;5016280;28;20102;-78
2022/09/02 01:58:51;;;;;;;0.40;0.10;;;17.60;49.60;;;;;;5047330;28;20036;-78
2022/09/02 02:01:19;;;;;;;1.10;0.10;;;17.60;49.60;;;;;;5032072;28;20470;-78
2022/09/02 02:03:46;;;;;;;0.32;0.05;;;17.60;49.60;;;;;;5068901;28;20068;-78
2022/09/02 02:06:16;;;;;;;0.17;0.10;;;17.70;49.60;;;;;;5063544;28;20129;-78
2022/09/02 02:08:45;;;;;;;0.38;0.10;;;17.70;49.60;;;;;;5054314;28;20044;-78
2022/09/02 02:11:21;;;;;;;0.30;0.10;;;17.70;49.60;;;;;;5051754;28;20046;-78
2022/09/02 02:13:52;;;;;;;0.15;0.00;;;17.70;49.60;;;;;;5064801;28;20491;-78
2022/09/02 02:16:20;;;;;;;0.55;0.10;;;17.70;49.60;;;;;;5063184;28;20040;-78
2022/09/02 02:18:47;;;;;;;0.38;0.00;;;17.70;49.60;;;;;;5050554;28;20071;-78
2022/09/02 02:21:14;;;;;;;0.40;0.00;;;17.70;49.60;;;;;;5040314;28;20044;-77
2022/09/02 02:23:42;;;;;;;0.43;0.10;;;17.70;50.10;;;;;;5032975;28;20044;-78
2022/09/02 02:26:09;;;;;;;0.32;0.10;;;17.80;49.60;;;;;;5023582;28;20122;-78
2022/09/02 02:28:36;;;;;;;0.30;0.05;;;17.70;49.50;;;;;;5062418;28;20165;-78
2022/09/02 02:31:05;;;;;;;0.10;0.00;;;17.80;49.60;;;;;;5057582;28;20051;-78
2022/09/02 02:33:34;;;;;;;0.40;0.10;;;17.70;49.60;;;;;;5060487;28;20140;-78
2022/09/02 02:36:05;;;;;;;0.50;0.00;;;17.70;49.60;;;;;;5039325;28;20071;-78
2022/09/02 02:38:34;;;;;;;0.00;0.00;;;17.70;49.60;;;;;;5065661;28;20044;-78
2022/09/02 02:41:03;;;;;;;0.40;0.10;;;17.70;49.60;;;;;;5063005;28;20059;-78
2022/09/02 02:43:31;;;;;;;0.32;0.10;;;17.70;49.60;;;;;;5035874;28;20043;-78
2022/09/02 02:45:58;;;;;;;0.98;0.10;;;17.70;49.70;;;;;;5086504;28;20035;-80
2022/09/02 02:48:25;;;;;;;0.30;0.10;;;17.70;49.70;;;;;;5066083;28;20040;-80
2022/09/02 02:50:53;;;;;;;1.55;0.20;;;17.70;49.70;;;;;;5057127;28;20048;-80
2022/09/02 02:53:20;;;;;;;0.40;0.10;;;17.70;49.70;;;;;;5046569;28;20044;-80
2022/09/02 02:55:47;;;;;;;0.68;0.10;;;17.70;49.80;;;;;;5083690;28;20127;-80
2022/09/02 02:58:20;;;;;;;0.45;0.15;;;17.70;49.80;;;;;;5054332;28;20051;-80
2022/09/02 03:00:48;;;;;;;0.10;0.10;;;17.70;49.80;;;;;;5054521;28;20040;-80
2022/09/02 03:03:18;;;;;;;0.15;0.00;;;17.70;49.80;;;;;;5048810;28;20044;-81
2022/09/02 03:05:49;;;;;;;0.40;0.10;;;17.70;49.80;;;;;;5035525;28;20040;-78
2022/09/02 03:08:21;;;;;;;0.85;0.10;;;17.70;49.80;;;;;;5020115;28;20047;-78
2022/09/02 03:10:52;;;;;;;2.45;0.10;;;17.60;49.80;;;;;;5055252;28;20191;-78
2022/09/02 03:13:22;;;;;;;0.82;0.10;;;17.60;49.80;;;;;;5055321;28;20047;-78
2022/09/02 03:15:51;;;;;;;0.20;0.05;;;17.60;49.90;;;;;;5066541;28;20131;-78
2022/09/02 03:18:20;;;;;;;0.20;0.00;;;17.60;49.90;;;;;;5058194;28;20064;-78
2022/09/02 03:20:48;;;;;;;0.38;0.10;;;17.60;49.90;;;;;;5056546;28;20063;-78
2022/09/02 03:23:16;;;;;;;0.10;0.00;;;17.60;49.90;;;;;;5057082;28;20150;-78
2022/09/02 03:25:47;;;;;;;0.50;0.10;;;17.60;50.00;;;;;;5044191;28;20067;-78
2022/09/02 03:28:22;;;;;;;0.20;0.00;;;17.60;50.00;;;;;;5084377;28;20033;-78
2022/09/02 03:30:49;;;;;;;0.63;0.10;;;17.50;50.00;;;;;;5066639;28;20393;-78
2022/09/02 03:33:17;;;;;;;0.30;0.10;;;17.50;50.00;;;;;;5045914;28;20041;-79
2022/09/02 03:35:45;;;;;;;0.77;0.13;;;17.50;50.00;;;;;;5049665;28;20094;-78
2022/09/02 03:38:14;;;;;;;0.52;0.10;;;17.50;50.10;;;;;;5062968;28;20072;-78
2022/09/02 03:40:43;;;;;;;0.30;0.10;;;17.50;50.10;;;;;;5068806;28;20072;-78
2022/09/02 03:43:11;;;;;;;0.52;0.10;;;17.50;50.10;;;;;;5049465;28;20119;-78
2022/09/02 03:45:40;;;;;;;0.52;0.10;;;17.50;50.20;;;;;;5062710;28;20523;-78
2022/09/02 03:48:12;;;;;;;0.38;0.10;;;17.50;50.20;;;;;;5047455;28;20134;-78
2022/09/02 03:50:42;;;;;;;0.47;0.10;;;17.50;50.20;;;;;;5076646;28;20130;-78
2022/09/02 03:53:14;;;;;;;0.10;0.05;;;17.50;50.30;;;;;;5069958;28;20049;-78
2022/09/02 03:55:54;;;;;;;0.15;0.00;;;17.40;50.20;;;;;;5060567;28;20506;-78
2022/09/02 03:58:24;;;;;;;0.60;0.00;;;17.40;50.30;;;;;;5044307;28;20050;-78
2022/09/02 04:00:54;;;;;;;0.80;0.10;;;17.40;50.30;;;;;;5025414;28;20036;-78
2022/09/02 04:03:22;;;;;;;0.17;0.00;;;17.40;50.40;;;;;;5048589;28;20041;-78
2022/09/02 04:05:51;;;;;;;0.77;0.10;;;17.40;50.40;;;;;;5043706;28;20089;-78
2022/09/02 04:08:19;;;;;;;0.57;0.00;;;17.30;50.40;;;;;;5063273;28;20044;-78
2022/09/02 04:10:48;;;;;;;1.02;0.10;;;17.30;50.50;;;;;;5050259;28;20127;-78
2022/09/02 04:13:15;;;;;;;0.30;0.10;;;17.30;50.60;;;;;;5055919;28;20039;-78
2022/09/02 04:15:46;;;;;;;0.40;0.10;;;17.20;50.60;;;;;;5056266;28;20512;-78
2022/09/02 04:18:16;;;;;;;0.10;0.00;;;17.20;50.70;;;;;;5065448;28;20377;-78
2022/09/02 04:20:44;;;;;;;0.20;0.00;;;17.20;50.70;;;;;;5055811;28;20098;-78
2022/09/02 04:23:11;;;;;;;0.55;0.17;;;17.20;50.70;;;;;;5055214;28;20043;-79
2022/09/02 04:25:42;;;;;;;0.60;0.10;;;17.20;50.70;;;;;;5039840;28;20064;-78
2022/09/02 04:28:09;;;;;;;1.13;0.10;;;17.20;50.80;;;;;;5070145;28;20464;-78
2022/09/02 04:30:41;;;;;;;0.25;0.05;;;17.20;50.70;;;;;;5058244;28;20044;-77
2022/09/02 04:33:11;;;;;;;0.20;0.10;;;17.20;50.80;;;;;;5059743;28;20051;-79
2022/09/02 04:35:45;;;;;;;0.57;0.00;;;17.20;50.80;;;;;;5028788;28;20051;-78
2022/09/02 04:38:15;;;;;;;0.00;0.00;;;17.20;50.80;;;;;;5059667;28;20546;-78
2022/09/02 04:40:45;;;;;;;1.58;0.13;;;17.20;50.90;;;;;;5056941;28;20143;-78
2022/09/02 04:43:13;;;;;;;0.28;0.10;;;17.20;50.90;;;;;;5034997;28;20135;-78
2022/09/02 04:45:44;;;;;;;0.47;0.10;;;17.20;51.00;;;;;;5087338;28;20037;-79
2022/09/02 04:48:14;;;;;;;0.22;0.00;;;17.10;50.90;;;;;;5046829;28;20495;-79
2022/09/02 04:50:41;;;;;;;1.17;0.10;;;17.10;51.00;;;;;;5052382;28;20036;-78
2022/09/02 04:53:09;;;;;;;0.38;0.10;;;17.10;51.60;;;;;;5041802;28;20071;-77
2022/09/02 04:55:39;;;;;;;1.00;0.13;;;17.10;51.10;;;;;;5035723;28;20074;-80
2022/09/02 04:58:09;;;;;;;0.10;0.03;;;17.10;51.10;;;;;;5058219;28;20048;-79
2022/09/02 05:00:38;;;;;;;0.30;0.10;;;17.00;51.10;;;;;;5057917;28;20067;-79
2022/09/02 05:03:11;;;;;;;2.47;0.10;;;17.00;51.20;;;;;;5059292;28;20404;-83
2022/09/02 05:05:44;;;;;;;1.23;0.00;;;17.00;51.20;;;;;;5049039;28;20064;-84
2022/09/02 05:08:21;;;;;;;0.45;0.10;;;17.00;51.30;;;;;;5055602;28;20040;-83
2022/09/02 05:10:55;;;;;;;0.52;0.10;;;17.00;51.40;;;;;;5059366;28;20369;-83
2022/09/02 05:13:27;;;;;;;0.22;0.10;;;17.00;51.40;;;;;;5045045;28;20169;-83
2022/09/02 05:15:58;;;;;;;0.20;0.10;;;17.00;51.40;;;;;;5045357;28;20563;-82
2022/09/02 05:18:26;;;;;;;0.63;0.10;;;16.90;51.40;;;;;;5046373;28;20462;-82
2022/09/02 05:20:54;;;;;;;0.20;0.00;;;16.90;51.40;;;;;;5035036;28;20485;-80
2022/09/02 05:23:21;;;;;;;0.47;0.10;;;16.90;51.50;;;;;;5057491;28;20111;-80
2022/09/02 05:25:49;;;;;;;0.35;0.00;;;16.90;51.50;;;;;;5049261;28;20094;-79
2022/09/02 05:28:19;;;;;;;0.20;0.10;;;16.90;51.60;;;;;;5054205;28;20146;-79
2022/09/02 05:30:46;;;;;;;0.38;0.10;;;16.90;51.60;;;;;;5070792;28;20066;-81
2022/09/02 05:33:15;;;;;;;1.70;0.20;;;16.80;51.60;;;;;;5036252;28;20048;-81
2022/09/02 05:35:46;;;;;;;0.28;0.10;;;16.80;51.70;;;;;;5041470;28;20052;-81
2022/09/02 05:38:16;;;;;;;0.30;0.05;;;16.80;51.80;;;;;;5047948;28;20052;-81
2022/09/02 05:40:45;;;;;;;0.82;0.10;;;16.80;51.80;;;;;;5041853;28;20075;-80
2022/09/02 05:43:12;;;;;;;1.02;0.32;;;16.80;51.80;;;;;;5051058;28;20488;-79
2022/09/02 05:45:40;;;;;;;0.30;0.10;;;16.80;51.80;;;;;;5045735;28;20063;-80
2022/09/02 05:50:56;;;;;;;0.50;0.10;;;17.00;51.70;;;;;;5040851;28;20080;-79
2022/09/02 05:53:25;;;;;;;0.35;0.10;;;17.00;51.60;;;;;;5054763;28;20044;-79
2022/09/02 05:55:53;;;;;;;1.23;0.15;;;17.20;51.60;;;;;;5024912;28;20036;-80
2022/09/02 05:58:21;;;;;;;0.08;0.00;;;17.20;51.40;;;;;;5028151;28;20504;-79
2022/09/02 06:00:48;;;;;;;0.20;0.10;;;17.30;51.40;;;;;;5034469;28;20054;-80
2022/09/02 06:03:18;;;;;;;0.20;0.10;;;17.40;51.30;;;;;;5039664;28;20301;-79
2022/09/02 06:05:55;;;;;;;1.65;0.13;;;17.40;51.30;;;;;;5038296;28;20395;-82
2022/09/02 06:08:24;;;;;;;0.57;0.10;;;17.60;51.20;;;;;;5051836;28;20128;-81
2022/09/02 06:10:52;;;;;;;0.63;0.10;;;17.70;51.10;;;;;;5051594;28;20467;-82
2022/09/02 06:13:21;;;;;;;0.15;0.10;;;17.80;50.90;;;;;;5014982;28;20474;-81
2022/09/02 06:15:51;;;;;;;0.90;0.10;;;17.90;50.80;;;;;;5053430;28;20048;-82
2022/09/02 06:18:23;;;;;;;0.20;0.10;;;18.00;50.70;;;;;;5035841;28;20411;-82
2022/09/02 06:20:55;;;;;;;0.23;0.10;;;18.00;50.70;;;;;;5057517;28;20052;-79
2022/09/02 06:23:24;;;;;;;1.75;0.20;;;18.10;50.70;;;;;;5064582;28;20139;-79
2022/09/02 06:25:51;;;;;;;0.30;0.10;;;18.00;50.80;;;;;;5035129;28;20089;-79
2022/09/02 06:28:19;;;;;;;0.47;0.10;;;18.00;50.80;;;;;;5037959;28;20040;-79
2022/09/02 06:30:48;;;;;;;1.38;0.30;;;18.00;50.90;;;;;;5037333;28;20043;-79
2022/09/02 06:33:20;;;;;;;;;;;17.90;51.00;;;;;;5049337;28;20048;-79
2022/09/02 06:35:48;;;;;;;0.10;0.00;;;17.80;51.10;;;;;;5040209;28;19920;-79
2022/09/02 06:38:18;;;;;;;1.55;0.15;;;17.80;51.30;;;;;;5047017;28;20162;-79
2022/09/02 06:40:49;;;;;;;1.58;0.17;;;17.80;51.20;;;;;;5039590;28;20153;-79
2022/09/02 06:43:20;;;;;;;1.67;0.10;;;17.90;51.20;;;;;;5048799;28;20040;-80
2022/09/02 06:46:16;;;;;;;0.52;0.10;;;18.00;51.70;;;;;;5050588;28;20055;-79
2022/09/02 06:48:48;;;;;;;0.20;0.10;;;18.10;51.00;;;;;;5060813;28;20049;-80
2022/09/02 06:51:29;;;;;;;0.68;0.20;;;18.10;50.90;;;;;;5021670;28;20152;-79
2022/09/02 06:53:59;;;;;;;0.40;0.10;;;18.20;50.90;;;;;;5053454;28;20449;-79
2022/09/02 06:56:31;;;;;;;0.50;0.10;;;18.20;51.50;;;;;;5065875;28;20041;-79
2022/09/02 06:58:59;;;;;;;1.45;0.20;;;18.30;50.90;;;;;;5042262;28;20041;-79
2022/09/02 07:01:41;;;;;;;0.73;0.10;;;18.30;50.90;;;;;;5060819;28;20044;-79
2022/09/02 07:06:56;;;;;;;0.40;0.10;;;18.40;50.80;;;;;;5045119;28;20040;-79
2022/09/02 07:09:30;;;;;;;0.47;0.10;;;18.50;50.80;;;;;;5044932;28;20051;-79
2022/09/02 07:12:05;;;;;;;0.52;0.13;;;18.50;50.70;;;;;;5044963;28;20093;-79
2022/09/02 07:14:38;;;;;;;;;;;18.70;50.80;;;;;;5044617;28;20453;-78
2022/09/02 07:17:07;;;;;;;0.43;0.10;;;18.70;50.60;;;;;;5052447;28;19970;-78
2022/09/02 07:19:36;;;;;;;0.30;0.10;;;18.80;50.60;;;;;;5059499;28;20040;-79
2022/09/02 07:22:05;;;;;;;0.35;0.10;;;18.90;50.50;;;;;;5063624;28;20510;-78
2022/09/02 07:24:38;;;;;;;0.50;0.13;;;19.10;50.30;;;;;;5053155;28;20045;-77
2022/09/02 07:27:06;;;;;;;0.65;0.20;;;19.20;50.20;;;;;;5064273;28;20040;-77
2022/09/02 07:29:34;;;;;;;0.98;0.20;;;19.30;50.10;;;;;;5031897;28;20036;-77
2022/09/02 07:32:02;;;;;;;1.85;0.30;;;19.50;49.90;;;;;;5043225;28;20052;-77
2022/09/02 07:34:30;;;;;;;0.82;0.22;;;19.70;49.80;;;;;;5020569;28;20488;-78
2022/09/02 07:36:58;;;;;;;0.85;0.32;;;19.90;49.60;;;;;;5058430;28;20047;-77
2022/09/02 07:39:31;;;;;;;0.28;0.10;;;20.00;49.40;;;;;;5037323;28;20056;-78
2022/09/02 07:41:59;;;;;;;0.60;0.10;;;20.10;49.30;;;;;;5047988;28;20052;-77
2022/09/02 07:44:27;;;;;;;1.73;0.20;;;20.30;49.20;;;;;;5053821;28;20101;-78
2022/09/02 07:46:55;;;;;;;1.45;0.20;;;20.40;49.00;;;;;;5036651;28;20032;-78
2022/09/02 07:49:23;;;;;;;1.17;0.10;;;20.50;48.80;;;;;;5057725;28;20531;-77
2022/09/02 07:51:51;;;;;;;1.55;0.20;;;20.60;48.80;;;;;;5046556;28;20028;-78
2022/09/02 07:54:22;;;;;;;0.38;0.20;;;20.70;48.80;;;;;;5071357;28;20132;-78
2022/09/02 07:56:52;;;;;;;1.67;0.10;;;20.80;48.70;;;;;;5051502;28;20046;-78
2022/09/02 07:59:20;;;;;;;1.25;0.30;;;20.80;48.60;;;;;;5062628;28;20048;-79
2022/09/02 08:01:52;;;;;;;0.15;0.10;;;20.90;48.60;;;;;;5029275;28;20580;-79
2022/09/02 08:04:24;;;;;;;1.00;0.20;;;21.00;48.50;;;;;;5047548;28;20052;-78
2022/09/02 08:06:54;;;;;;;0.40;0.10;;;21.20;48.40;;;;;;5029741;28;20079;-79
2022/09/02 08:09:27;;;;;;;0.77;0.22;;;21.30;48.30;;;;;;5049755;28;20110;-79
2022/09/02 08:11:54;;;;;;;0.85;0.25;;;21.40;48.20;;;;;;5055729;28;20036;-79
2022/09/02 08:14:26;;;;;;;0.82;0.20;;;21.50;48.10;;;;;;5059786;28;20043;-79
2022/09/02 08:16:55;;;;;;;2.30;0.20;;;21.50;47.90;;;;;;5055825;28;20044;-79
2022/09/02 08:19:35;;;;;;;0.88;0.20;;;21.50;47.90;;;;;;5056638;28;20108;-79
2022/09/02 08:22:08;;;;;;;0.50;0.20;;;21.60;47.90;;;;;;5039947;28;20419;-79
2022/09/02 08:24:35;;;;;;;0.30;0.10;;;21.70;47.80;;;;;;5028161;28;20086;-78
2022/09/02 08:27:04;;;;;;;0.40;0.15;;;21.80;47.70;;;;;;5048437;28;20052;-78
2022/09/02 08:29:32;;;;;;;0.22;0.10;;;21.90;47.50;;;;;;5034065;28;20063;-78
2022/09/02 08:32:00;;;;;;;0.45;0.20;;;22.00;47.40;;;;;;5062497;28;20033;-78
2022/09/02 08:34:32;;;;;;;0.40;0.20;;;22.10;47.40;;;;;;5043359;28;20044;-78
2022/09/02 08:36:59;;;;;;;0.40;0.20;;;22.10;47.30;;;;;;5029955;28;20391;-78
2022/09/02 08:39:26;;;;;;;0.70;0.20;;;22.20;47.20;;;;;;5055544;28;20091;-78
2022/09/02 08:42:27;;;;;;;0.68;0.20;;;22.30;47.20;;;;;;5080453;28;20102;-78
2022/09/02 08:45:23;;;;;;;0.47;0.20;;;22.30;47.00;;;;;;5063059;28;20503;-79
2022/09/02 08:47:57;;;;;;;1.75;0.32;;;22.30;47.00;;;;;;5071093;28;20047;-78
2022/09/02 08:50:24;;;;;;;1.08;0.20;;;22.30;47.20;;;;;;5048515;28;20072;-78
2022/09/02 08:53:08;;;;;;;0.90;0.28;;;22.30;47.10;;;;;;5060370;28;20035;-78
2022/09/02 08:55:54;;;;;;;0.77;0.20;;;22.30;47.00;;;;;;5080659;28;20043;-78
2022/09/02 08:58:24;;;;;;;0.93;0.20;;;22.40;47.00;;;;;;5051593;28;20048;-78
2022/09/02 09:01:18;;;;;;;1.60;0.28;;;22.40;47.10;;;;;;5056293;28;20040;-78
2022/09/02 09:04:16;;;;;;;0.52;0.20;;;22.50;47.00;;;;;;5081417;28;20040;-78
2022/09/02 09:07:19;;;;;;;1.98;0.30;;;22.40;46.90;;;;;;5055657;28;20497;-78
2022/09/02 09:09:48;;;;;;;;;;;22.40;47.00;;;;;;5064993;28;20455;-78
2022/09/02 09:12:47;;;;;;;0.85;0.20;;;22.40;47.20;;;;;;5076540;28;19928;-78
2022/09/02 09:15:24;;;;;;;0.32;0.10;;;22.30;47.10;;;;;;5074662;28;20059;-80
2022/09/02 09:17:56;;;;;;;0.32;0.20;;;22.40;47.20;;;;;;5076024;28;20041;-79
2022/09/02 09:20:32;;;;;;;0.82;0.20;;;22.50;47.00;;;;;;5059762;28;20134;-80
2022/09/02 09:23:05;;;;;;;0.68;0.20;;;22.60;46.90;;;;;;5062890;28;20040;-79
2022/09/02 09:25:32;;;;;;;0.73;0.25;;;22.60;46.80;;;;;;5067422;28;20101;-79
2022/09/02 09:28:00;;;;;;;0.60;0.20;;;22.60;46.70;;;;;;5029522;28;20105;-79
2022/09/02 09:30:28;;;;;;;1.27;0.30;;;22.70;46.80;;;;;;5056829;28;20056;-78
2022/09/02 09:32:59;;;;;;;0.65;0.20;;;22.70;46.70;;;;;;5045751;28;20036;-79
2022/09/02 09:35:45;;;;;;;0.45;0.20;;;22.80;46.60;;;;;;5057476;28;20068;-79
2022/09/02 09:38:13;;;;;;;0.90;0.30;;;22.90;46.60;;;;;;5058484;28;20513;-79
2022/09/02 09:40:40;;;;;;;0.77;0.20;;;22.90;46.60;;;;;;5074622;28;20140;-79
2022/09/02 09:43:10;;;;;;;0.98;0.22;;;23.00;46.60;;;;;;5054297;28;20111;-80
2022/09/02 09:45:44;;;;;;;0.30;0.20;;;23.00;46.50;;;;;;5057767;28;20044;-77
2022/09/02 09:48:26;;;;;;;0.52;0.20;;;23.00;46.50;;;;;;5058179;28;20048;-77
2022/09/02 09:50:56;;;;;;;1.42;0.35;;;23.10;46.40;;;;;;5078484;28;20032;-77
2022/09/02 09:53:29;;;;;;;0.90;0.20;;;23.20;46.40;;;;;;5062722;28;20044;-78
2022/09/02 09:56:01;;;;;;;1.25;0.20;;;23.30;46.20;;;;;;5055793;28;20064;-76
2022/09/02 09:58:39;;;;;;;2.08;0.30;;;23.40;46.10;;;;;;5085211;28;20044;-76
2022/09/02 10:01:31;;;;;;;0.52;0.20;;;23.60;45.90;;;;;;5072098;28;20059;-76
2022/09/02 10:04:11;;;;;;;1.00;0.50;;;23.70;45.80;;;;;;5067299;28;20500;-76
2022/09/02 10:06:58;;;;;;;1.35;0.30;;;23.90;45.60;;;;;;5058643;28;20064;-78
2022/09/02 10:09:35;;;;;;;0.50;0.25;;;23.90;45.50;;;;;;5064865;28;20055;-80
2022/09/02 10:12:09;;;;;;;0.60;0.20;;;24.00;45.40;;;;;;5063103;28;20032;-79
2022/09/02 10:14:45;;;;;;;1.13;0.20;;;24.20;45.30;;;;;;5053780;28;20097;-78
2022/09/02 10:17:31;;;;;;;1.65;0.30;;;24.40;45.10;;;;;;5062568;28;20139;-79
2022/09/02 10:20:07;;;;;;;0.70;0.28;;;24.50;45.00;;;;;;5082899;28;20045;-79
2022/09/02 10:23:11;;;;;;;1.00;0.30;;;24.50;44.90;;;;;;5068392;28;20044;-79
2022/09/02 10:25:50;;;;;;;1.05;0.32;;;24.70;44.70;;;;;;5055780;28;20419;-78
2022/09/02 10:28:43;;;;;;;0.60;0.30;;;24.70;44.70;;;;;;5062346;28;20051;-79
2022/09/02 10:31:40;;;;;;;0.47;0.20;;;24.90;44.60;;;;;;5060845;28;20534;-78
2022/09/02 10:34:26;;;;;;;1.20;0.30;;;25.20;44.30;;;;;;5071164;28;20492;-79
2022/09/02 10:37:11;;;;;;;1.00;0.20;;;25.40;44.10;;;;;;5074819;28;20044;-77
2022/09/02 10:40:09;;;;;;;1.90;0.40;;;25.60;43.80;;;;;;5056423;28;20501;-77
2022/09/02 10:42:54;;;;;;;0.73;0.30;;;25.70;43.50;;;;;;5061584;28;20101;-78
2022/09/02 10:45:35;;;;;;;0.80;0.40;;;25.70;43.60;;;;;;5083493;28;20072;-78
2022/09/02 10:48:22;;;;;;;2.05;0.40;;;25.60;43.60;;;;;;5073882;28;20483;-80
2022/09/02 10:51:05;;;;;;;0.90;0.30;;;25.40;43.90;;;;;;5056406;28;20040;-79
2022/09/02 10:53:37;;;;;;;0.60;0.30;;;25.20;44.20;;;;;;5090834;28;20039;-78
2022/09/02 10:56:11;;;;;;;1.13;0.50;;;25.20;44.30;;;;;;5066223;28;20045;-77
2022/09/02 10:58:44;;;;;;;0.77;0.30;;;25.20;44.30;;;;;;5086711;28;20048;-77
2022/09/02 11:01:19;;;;;;;0.32;0.30;;;25.30;44.50;;;;;;5040989;28;20084;-79
2022/09/02 11:04:14;;;;;;;1.08;0.30;;;25.40;44.40;;;;;;5063136;28;20516;-78
2022/09/02 11:06:49;;;;;;;0.90;0.30;;;25.50;44.30;;;;;;5071649;28;20464;-80
2022/09/02 11:09:40;;;;;;;1.13;0.45;;;25.40;44.30;;;;;;5061402;28;20105;-81
2022/09/02 11:12:31;;;;;;;1.58;0.57;;;25.40;45.10;;;;;;5059899;28;20041;-81
2022/09/02 11:15:13;;;;;;;0.98;0.40;;;25.40;44.50;;;;;;5057315;28;20064;-82
2022/09/02 11:17:43;;;;;;;0.95;0.30;;;25.50;44.60;;;;;;5083236;28;20029;-81
2022/09/02 11:20:14;;;;;;;0.95;0.30;;;25.50;44.50;;;;;;5055569;28;20040;-75
2022/09/02 11:23:04;;;;;;;0.63;0.30;;;25.50;44.50;;;;;;5075842;28;20119;-78
2022/09/02 11:25:57;;;;;;;0.65;0.38;;;25.60;44.30;;;;;;5053307;28;20044;-78
2022/09/02 11:28:30;;;;;;;1.13;0.40;;;26.20;43.90;;;;;;5078387;28;20070;-77
2022/09/02 11:31:09;;;;;;;0.60;0.30;;;26.70;43.30;;;;;;5085510;28;20484;-78
2022/09/02 11:34:01;;;;;;;1.42;0.63;;;26.90;42.70;;;;;;5095553;28;20036;-78
2022/09/02 11:36:28;;;;;;;0.95;0.50;;;27.40;41.80;;;;;;5088685;28;20473;-78
2022/09/02 11:39:17;;;;;;;0.88;0.50;;;27.70;41.60;;;;;;5084291;28;20050;-77
2022/09/02 11:42:27;;;;;;;0.75;0.30;;;27.90;41.20;;;;;;5059334;28;20531;-77
2022/09/02 11:44:57;;;;;;;;;;;28.10;40.80;;;;;;5089022;28;20089;-79
2022/09/02 11:47:24;;;;;;;2.03;0.40;;;28.00;41.00;;;;;;5059501;28;20356;-78
2022/09/02 11:50:02;;;;;;;1.08;0.40;;;28.00;40.60;;;;;;5060316;28;20082;-78
2022/09/02 11:52:44;;;;;;;1.08;0.40;;;27.90;40.40;;;;;;5074669;28;20033;-78
2022/09/02 11:55:20;;;;;;;0.95;0.40;;;28.00;40.50;;;;;;5060767;28;20048;-78
2022/09/02 11:57:53;;;;;;;1.15;0.30;;;28.10;40.30;;;;;;5060779;28;20098;-78
2022/09/02 12:00:54;;;;;;;0.80;0.40;;;28.20;40.20;;;;;;5071881;28;20056;-78
2022/09/02 12:03:25;;;;;;;1.00;0.40;;;28.50;40.10;;;;;;5043514;28;20072;-74
2022/09/02 12:06:14;;;;;;;0.82;0.50;;;28.80;39.80;;;;;;5045705;28;20048;-75
2022/09/02 12:08:41;;;;;;;0.73;0.40;;;29.10;39.60;;;;;;5066264;28;20048;-79
2022/09/02 12:11:29;;;;;;;0.88;0.40;;;29.00;39.40;;;;;;5053529;28;20051;-80
2022/09/02 12:13:57;;;;;;;1.40;0.40;;;28.40;39.60;;;;;;5075474;28;20117;-79
2022/09/02 12:16:28;;;;;;;1.08;0.47;;;27.70;40.10;;;;;;5045146;28;20102;-76
2022/09/02 12:18:58;;;;;;;0.80;0.22;;;27.30;40.50;;;;;;5058336;28;20082;-77
2022/09/02 12:21:28;;;;;;;1.15;0.40;;;27.00;40.80;;;;;;5046317;28;20072;-76
2022/09/02 12:23:55;;;;;;;0.63;0.40;;;26.80;40.90;;;;;;5050593;28;20056;-77
2022/09/02 12:26:39;;;;;;;1.00;0.38;;;26.60;41.00;;;;;;5081041;28;20028;-77
2022/09/02 12:29:12;;;;;;;1.13;0.40;;;26.40;40.80;;;;;;5050872;28;20051;-76
2022/09/02 12:31:42;;;;;;;1.02;0.35;;;26.30;41.00;;;;;;5071834;28;20044;-76
2022/09/02 12:34:25;;;;;;;0.43;0.28;;;26.20;41.10;;;;;;5040661;28;20095;-76
2022/09/02 12:36:56;;;;;;;0.68;0.35;;;26.10;41.10;;;;;;5069033;28;20098;-76
2022/09/02 12:39:26;;;;;;;0.65;0.38;;;26.20;41.10;;;;;;5055476;28;20044;-77
2022/09/02 12:42:05;;;;;;;0.60;0.35;;;26.20;40.90;;;;;;5059631;28;20401;-77
2022/09/02 12:45:08;;;;;;;1.00;0.30;;;26.20;40.60;;;;;;5057769;28;20048;-77
2022/09/02 12:48:01;;;;;;;0.50;0.30;;;26.20;40.60;;;;;;5060719;28;20052;-76
2022/09/02 12:50:34;;;;;;;0.70;0.30;;;26.00;40.70;;;;;;5065625;28;20508;-76
2022/09/02 12:53:23;;;;;;;0.60;0.30;;;26.00;40.70;;;;;;5051586;28;20105;-77
2022/09/02 12:56:08;;;;;;;0.75;0.30;;;26.10;40.50;;;;;;5061509;28;20064;-76
2022/09/02 12:58:44;;;;;;;0.32;0.22;;;26.20;40.40;;;;;;5056111;28;20109;-77
2022/09/02 13:01:46;;;;;;;0.50;0.35;;;26.40;40.40;;;;;;5063014;28;20055;-76
2022/09/02 13:04:31;;;;;;;0.90;0.40;;;26.50;40.20;;;;;;5052696;28;20074;-76
2022/09/02 13:07:32;;;;;;;1.02;0.40;;;26.50;40.20;;;;;;5068204;28;20040;-77
2022/09/02 13:10:37;;;;;;;1.02;0.30;;;26.60;40.00;;;;;;5067276;28;20072;-77
2022/09/02 13:13:47;;;;;;;0.50;0.30;;;26.70;40.00;;;;;;4975263;28;20490;-77
2022/09/02 13:17:10;;;;;;;0.55;0.30;;;26.80;39.90;;;;;;5067856;28;20147;-76
2022/09/02 13:20:13;;;;;;;1.20;0.40;;;26.80;39.40;;;;;;4990809;28;20135;-77
2022/09/02 13:23:00;;;;;;;0.50;0.30;;;26.90;39.60;;;;;;5000244;28;20092;-77
2022/09/02 13:25:45;;;;;;;1.75;0.30;;;26.90;39.50;;;;;;5067044;28;20059;-77
2022/09/02 13:28:49;;;;;;;0.93;0.40;;;26.80;39.50;;;;;;5062911;28;20063;-77